• Join FlightAware (Why Join?)
  • Login
  • US Flag 
11:02PM EST


 

Airport Tracker/Info


-or-


 

Live Flight TrackerFlight Track Log ✈ N30898 ✈ 04-Jan-2014 ✈ KMCN - KMQY

Flight Track Log - Related Links

Times and Time Zones

All times are in EST time to prevent confusion due to time zone crossing. See the N30898 flight status page for this flight to view local times or setup timezone preferences in your user account.

Time Position Orientation Groundspeed Altitude Reporting Facility
EST Latitude Longitude Course Direction KTS MPH feet Rate Location/Type
02:15PM 32.7397 -83.7203 275° West 247 284 4,000  Level Atlanta Center
02:16PM 32.7419 -83.7697 273° West 196 226 5,200 1,080 Climbing Atlanta Center
02:17PM 32.7483 -83.8142 280° West 160 184 6,200 900 Climbing Atlanta Center
02:18PM 32.7506 -83.8683 273° West 155 178 7,000 960 Climbing Atlanta Center
02:19PM 33.0888 -83.9774 320° Northwest  Level Estimated
02:19PM 32.7525 -83.9228 272° West 160 184 8,200  Level Atlanta Center
02:20PM 32.7528 -83.9747 270° West 160 184 9,200 960 Climbing Atlanta Center
02:21PM 32.7881 -84.0067 323° Northwest 146 168 10,200 900 Climbing Atlanta Center
02:22PM 32.8361 -84.0239 343° North 159 183 11,100 900 Climbing Atlanta Center
02:23PM 32.8842 -84.0439 341° North 169 194 12,100 960 Climbing Atlanta Center
02:24PM 32.9322 -84.0661 339° North 175 201 13,100 900 Climbing Atlanta Center
02:25PM 32.9822 -84.0833 344° North 180 207 14,000 900 Climbing Atlanta Center
02:26PM 33.0325 -84.0983 346° North 185 213 15,000 900 Climbing Atlanta Center
02:27PM 33.0867 -84.1231 339° North 185 213 15,900 840 Climbing Atlanta Center
02:28PM 33.1347 -84.1528 333° Northwest 185 213 16,700 780 Climbing Atlanta Center
02:29PM 33.1806 -84.1728 340° North 190 219 17,500 660 Climbing Atlanta Center
02:30PM 33.2306 -84.2003 335° Northwest 202 232 18,100 660 Climbing Atlanta Center
02:31PM 33.2828 -84.2278 336° Northwest 202 232 18,900 780 Climbing Atlanta Center
02:32PM 33.3369 -84.2553 337° Northwest 197 227 19,700 540 Climbing Atlanta Center
02:33PM 33.3933 -84.2850 336° Northwest 203 234 20,000 120 Climbing Atlanta Center
02:34PM 33.4517 -84.3203 333° Northwest 224 258 20,000  Level Atlanta Center
02:35PM 33.5225 -84.3578 336° Northwest 235 270 20,000  Level Atlanta Center
02:36PM 33.5872 -84.3928 336° Northwest 245 282 20,000  Level Atlanta Center
02:37PM 33.6475 -84.4256 336° Northwest 245 282 20,000  Level Atlanta Center
02:38PM 33.7122 -84.4608 336° Northwest 251 289 20,000  Level Atlanta Center
02:39PM 33.7767 -84.4936 337° Northwest 251 289 20,000  Level Atlanta Center
02:40PM 33.8414 -84.5342 333° Northwest 257 296 20,000  Level Atlanta Center
02:41PM 33.9058 -84.5669 337° Northwest 262 302 20,000  Level Atlanta Center
02:42PM 33.9703 -84.6025 335° Northwest 256 295 20,000  Level Atlanta Center
02:43PM 34.0350 -84.6406 334° Northwest 256 295 20,000  Level Atlanta Center
02:44PM 34.0972 -84.6736 336° Northwest 256 295 20,000  Level Atlanta Center
02:45PM 34.1722 -84.7117 337° Northwest 261 300 20,000  Level Atlanta Center
02:46PM 34.2369 -84.7447 337° Northwest 252 290 20,000  Level Atlanta Center
02:47PM 34.3014 -84.7806 335° Northwest 252 290 20,000  Level Atlanta Center
02:48PM 34.3658 -84.8164 335° Northwest 252 290 20,000  Level Atlanta Center
02:49PM 34.4303 -84.8547 334° Northwest 257 296 20,000  Level Atlanta Center
02:50PM 34.4947 -84.8881 337° Northwest 251 289 20,000  Level Atlanta Center
02:51PM 34.5611 -84.9267 334° Northwest 256 295 20,000  Level Atlanta Center
02:52PM 34.6236 -84.9625 335° Northwest 256 295 20,000  Level Atlanta Center
02:53PM 34.6858 -85.0011 333° Northwest 256 295 20,000  Level Atlanta Center
02:54PM 34.7483 -85.0347 336° Northwest 256 295 20,000  Level Atlanta Center
02:55PM 34.8125 -85.0711 335° Northwest 251 289 20,000  Level Atlanta Center
02:56PM 34.8750 -85.1072 335° Northwest 251 289 20,000  Level Atlanta Center
02:57PM 34.9392 -85.1436 335° Northwest 251 289 20,000 -60 Level Atlanta Center
02:59PM 35.0264 -85.2342 320° Northwest 238 274 19,900 -420 Descending Memphis Center
03:00PM 35.0711 -85.2936 313° West 237 273 18,900 -1,020 Descending Memphis Center
03:01PM 35.1175 -85.3514 314° West 237 273 17,800 -1,140 Descending Memphis Center
03:02PM 35.1600 -85.4058 314° West 225 259 16,600 -1,140 Descending Memphis Center
03:03PM 35.2003 -85.4592 313° West 215 247 15,500 -1,020 Descending Memphis Center
03:04PM 35.2433 -85.5131 314° West 218 251 14,500 -720 Descending Memphis Center
03:05PM 35.2928 -85.5775 313° West 216 249 14,100 -240 Descending Memphis Center
03:06PM 35.3347 -85.6308 314° West 216 249 14,100  Level Memphis Center
03:07PM 35.3758 -85.6844 313° West 215 247 14,100  Level Memphis Center
03:08PM 35.4161 -85.7378 313° West 213 245 14,100  Level Memphis Center
03:09PM 35.4569 -85.7897 314° West 212 244 14,100  Level Memphis Center
03:10PM 35.4978 -85.8419 314° West 211 243 14,100 -720 Level Memphis Center
03:12PM 35.5375 -85.8942 313° West 210 242 12,700 -1,380 Descending Memphis Center
03:13PM 35.5767 -85.9439 314° West 205 236 11,300 -1,440 Descending Memphis Center
03:14PM 35.6181 -86.0003 312° West 201 231 9,800 -1,260 Descending Memphis Center
03:15PM 35.6567 -86.0503 314° West 200 230 8,800 -840 Descending Memphis Center
03:16PM 35.6928 -86.0989 312° West 194 223 8,100 -780 Descending Memphis Center
03:17PM 35.7386 -86.1453 321° Northwest 186 214 7,300 -780 Descending Memphis Center
03:18PM 35.7892 -86.1742 335° Northwest 195 224 6,600 -720 Descending Memphis Center
03:19PM 35.8367 -86.2036 333° Northwest 193 222 5,900 -720 Descending Memphis Center
03:20PM 35.8833 -86.2372 330° Northwest 193 222 5,200 -720 Descending Memphis Center
03:21PM 35.9294 -86.2689 331° Northwest 189 217 4,500 -660 Descending Memphis Center
03:22PM 35.9744 -86.3047 327° Northwest 190 219 3,900 -540 Descending Memphis Center
03:23PM 36.0133 -86.3503 317° Northwest 192 221 3,400 -480 Descending Memphis Center
03:24PM 36.0425 -86.4014 305° West 184 212 3,000 -540 Descending Memphis Center
03:25PM 36.0681 -86.4661 296° West 179 206 2,300 -660 Descending Memphis Center
03:26PM 36.0617 -86.5169 261° West 162 186 1,700 -660 Descending Memphis Center
03:27PM 36.0300 -86.5186 182° South 127 146 1,000 -480 Descending Memphis Center
03:28PM 36.0067 -86.5183 179° South 119 137 800 -240 Descending Memphis Center